Time;durP1;ratioP1;P1;durP2;ratioP2;P2;SDS_P1;SDS_P2;PMS_P1;PMS_P2;Temp;Humidity;BMP_temperature;BMP_pressure;BME280_temperature;BME280_humidity;BME280_pressure;Samples;Min_cycle;Max_cycle;Signal;HPM_P1;HPM_P2
2022/08/18 00:02:15;;;;;;;5.55;4.38;;;;;;;22.33;76.30;94290.78;5011687;28;20206;-60
2022/08/18 00:04:42;;;;;;;6.18;4.35;;;;;;;22.46;75.13;94318.41;5011855;28;20305;-61
2022/08/18 00:07:13;;;;;;;4.75;4.25;;;;;;;22.43;76.51;94308.44;5011918;28;20685;-63
2022/08/18 00:09:40;;;;;;;4.50;4.03;;;;;;;22.30;77.47;94311.91;5011628;28;20313;-63
2022/08/18 00:12:15;;;;;;;6.85;4.13;;;;;;;22.20;77.15;94313.38;5011722;28;20334;-61
2022/08/18 00:14:41;;;;;;;6.45;4.70;;;;;;;22.41;75.62;94333.75;5011644;28;20711;-64
2022/08/18 00:17:06;;;;;;;4.85;4.32;;;;;;;22.30;74.95;94339.63;4993915;28;20578;-61
2022/08/18 00:19:32;;;;;;;5.72;3.97;;;;;;;22.00;76.90;94315.31;5011663;28;20210;-63
2022/08/18 00:21:58;;;;;;;6.97;4.68;;;;;;;22.01;77.26;94314.28;5011718;28;20209;-63
2022/08/18 00:24:24;;;;;;;4.78;4.30;;;;;;;22.08;76.18;94328.78;5011345;28;20573;-60
2022/08/18 00:26:49;;;;;;;7.10;4.30;;;;;;;22.00;77.04;94329.03;5011381;28;20178;-60
2022/08/18 00:29:14;;;;;;;5.32;4.18;;;;;;;22.20;77.56;94327.13;5011452;28;20287;-64
2022/08/18 00:31:40;;;;;;;4.05;3.65;;;;;;;22.19;77.10;94322.16;5011442;28;20309;-63
2022/08/18 00:34:06;;;;;;;6.47;4.30;;;;;;;22.23;77.05;94331.09;5011247;28;20217;-64
2022/08/18 00:36:33;;;;;;;6.15;3.55;;;;;;;22.21;77.12;94327.91;4993630;28;20194;-62
2022/08/18 00:38:59;;;;;;;6.32;4.15;;;;;;;22.20;76.86;94334.88;5011522;28;20202;-65
2022/08/18 00:41:25;;;;;;;4.50;4.10;;;;;;;22.19;77.26;94327.31;5011282;28;20256;-64
2022/08/18 00:43:51;;;;;;;5.70;3.90;;;;;;;22.05;77.69;94323.22;4993558;28;20223;-64
2022/08/18 00:46:24;;;;;;;4.95;4.10;;;;;;;22.10;77.54;94326.78;5010055;28;20665;-63
2022/08/18 00:48:51;;;;;;;5.35;4.38;;;;;;;22.00;78.31;94316.06;5011208;28;20250;-63
2022/08/18 00:51:38;;;;;;;5.50;4.25;;;;;;;22.06;78.97;94324.81;5011204;28;20245;-63
2022/08/18 00:54:17;;;;;;;7.85;4.70;;;;;;;22.01;78.97;94328.03;5011336;28;20210;-62
2022/08/18 00:56:47;;;;;;;6.13;4.53;;;;;;;22.14;78.46;94351.25;5011182;28;20225;-63
2022/08/18 00:59:28;;;;;;;5.43;4.18;;;;;;;22.01;78.53;94343.56;5014094;28;20230;-62
2022/08/18 01:02:01;;;;;;;8.27;4.82;;;;;;;21.87;79.62;94326.50;5017709;28;20205;-63
2022/08/18 01:04:55;;;;;;;6.82;4.70;;;;;;;21.95;78.85;94339.22;5017702;28;20559;-63
2022/08/18 01:07:28;;;;;;;5.68;4.40;;;;;;;21.82;79.51;94335.88;5017876;28;20256;-63
2022/08/18 01:09:58;;;;;;;4.82;4.32;;;;;;;21.82;79.73;94331.50;5016395;28;20301;-60
2022/08/18 01:12:25;;;;;;;6.32;4.80;;;;;;;21.91;79.65;94338.03;5017846;28;20218;-63
2022/08/18 01:14:52;;;;;;;7.38;5.03;;;;;;;21.80;79.86;94332.66;4999792;28;20202;-63
2022/08/18 01:23:32;;;;;;;6.40;4.60;;;;;;;21.74;80.04;94353.22;4973808;28;20707;-63
2022/08/18 01:26:00;;;;;;;5.20;4.35;;;;;;;21.80;79.80;94341.22;5017125;28;20206;-61
2022/08/18 01:28:39;;;;;;;4.68;4.22;;;;;;;21.87;79.45;94349.81;5017767;28;20215;-60
2022/08/18 01:31:06;;;;;;;4.82;4.43;;;;;;;21.89;78.81;94357.38;5017684;28;20171;-62
2022/08/18 01:33:37;;;;;;;5.55;4.55;;;;;;;21.90;79.30;94346.78;4999998;28;20598;-63
2022/08/18 01:36:19;;;;;;;5.85;4.50;;;;;;;21.88;79.51;94348.00;5017451;28;20525;-59
2022/08/18 01:38:52;;;;;;;4.80;4.28;;;;;;;21.71;80.35;94335.47;4999669;28;20228;-60
2022/08/18 01:41:19;;;;;;;7.82;4.78;;;;;;;21.78;80.25;94343.22;5017312;28;20281;-62
2022/08/18 01:43:45;;;;;;;6.28;4.35;;;;;;;21.82;80.07;94341.06;5017175;28;20269;-65
2022/08/18 01:46:11;;;;;;;6.43;5.03;;;;;;;21.77;80.50;94334.66;5017187;28;20186;-60
2022/08/18 01:48:36;;;;;;;7.93;5.45;;;;;;;21.75;81.08;94317.78;4999530;28;20216;-64
2022/08/18 01:51:07;;;;;;;5.82;4.65;;;;;;;21.57;81.98;94310.66;4999478;28;20175;-61
2022/08/18 01:53:33;;;;;;;6.22;5.10;;;;;;;21.40;81.79;94317.31;5017739;28;20215;-60
2022/08/18 01:55:58;;;;;;;8.20;5.50;;;;;;;21.34;82.30;94309.56;5017202;28;20191;-63
2022/08/18 01:58:26;;;;;;;8.23;5.20;;;;;;;21.26;83.45;94308.00;5017251;28;20211;-64
2022/08/18 02:00:58;;;;;;;6.20;4.70;;;;;;;21.45;83.63;94319.28;5017372;28;20772;-63
2022/08/18 02:03:27;;;;;;;7.93;5.00;;;;;;;21.41;83.86;94316.28;5017174;28;20218;-64
2022/08/18 02:05:59;;;;;;;8.55;4.93;;;;;;;21.29;83.90;94310.16;4999509;28;20187;-59
2022/08/18 02:08:25;;;;;;;7.28;4.97;;;;;;;21.31;83.72;94320.31;4999169;28;20225;-60
2022/08/18 02:10:50;;;;;;;5.82;4.90;;;;;;;21.25;83.64;94321.13;4996266;28;20190;-60
2022/08/18 02:13:17;;;;;;;13.15;5.07;;;;;;;21.15;84.34;94318.94;4996187;28;20202;-63
2022/08/18 02:15:42;;;;;;;7.28;5.38;;;;;;;21.11;85.42;94317.75;5013669;28;20190;-61
2022/08/18 02:18:22;;;;;;;7.28;5.00;;;;;;;21.14;85.47;94326.91;5013455;28;20187;-63
2022/08/18 02:20:48;;;;;;;5.40;4.90;;;;;;;21.21;84.48;94344.00;4996032;28;20669;-62
2022/08/18 02:23:14;;;;;;;6.20;5.05;;;;;;;21.39;83.32;94364.84;5013934;28;20215;-59
2022/08/18 02:25:42;;;;;;;8.18;5.40;;;;;;;21.39;83.17;94359.66;5013698;28;20736;-64
2022/08/18 02:28:08;;;;;;;7.78;5.25;;;;;;;21.37;83.47;94355.72;4995845;28;20206;-63
2022/08/18 02:30:36;;;;;;;5.20;4.68;;;;;;;21.36;84.27;94348.94;4995733;28;20277;-60
2022/08/18 02:33:03;;;;;;;5.57;4.82;;;;;;;21.33;84.95;94339.78;5013130;28;20194;-63
2022/08/18 02:35:29;;;;;;;8.60;5.25;;;;;;;21.41;84.26;94341.38;5013277;28;20292;-62
2022/08/18 02:38:00;;;;;;;8.10;5.32;;;;;;;21.44;84.10;94340.97;5013740;28;20329;-60
2022/08/18 02:40:27;;;;;;;9.15;6.03;;;;;;;21.38;83.09;94350.34;5013413;28;20207;-63
2022/08/18 02:42:53;;;;;;;9.18;5.18;;;;;;;21.21;84.16;94336.25;5013630;28;20206;-64
2022/08/18 02:45:19;;;;;;;7.55;5.30;;;;;;;21.11;84.87;94317.75;4995576;28;20215;-62
2022/08/18 02:47:50;;;;;;;6.60;5.57;;;;;;;21.02;85.20;94326.75;5013421;28;20206;-64
2022/08/18 02:50:15;;;;;;;10.40;5.43;;;;;;;20.99;84.98;94327.09;5013285;28;20229;-63
2022/08/18 02:52:41;;;;;;;5.93;5.18;;;;;;;20.97;85.31;94326.50;4995431;28;20207;-63
2022/08/18 02:55:07;;;;;;;5.80;5.20;;;;;;;20.86;85.85;94320.19;5012994;28;20697;-64
2022/08/18 02:57:33;;;;;;;6.55;4.90;;;;;;;20.84;85.44;94336.88;5012974;28;20252;-64
2022/08/18 02:59:59;;;;;;;7.45;4.95;;;;;;;20.89;85.18;94339.63;5012830;28;20670;-64
2022/08/18 03:02:24;;;;;;;8.73;5.07;;;;;;;20.86;85.17;94335.69;5011820;28;20201;-62
2022/08/18 03:04:50;;;;;;;6.20;5.18;;;;;;;20.77;84.98;94343.81;5012878;28;20206;-64
2022/08/18 03:07:16;;;;;;;6.60;5.47;;;;;;;20.69;86.37;94325.94;5013064;28;20198;-63
2022/08/18 03:09:42;;;;;;;8.82;5.47;;;;;;;20.64;87.58;94312.84;4995208;28;20662;-64
2022/08/18 03:12:09;;;;;;;5.53;5.00;;;;;;;20.62;87.26;94323.38;5012846;28;20306;-63
2022/08/18 03:14:36;;;;;;;6.28;5.68;;;;;;;20.81;86.09;94343.22;4995209;28;20299;-63
2022/08/18 03:17:05;;;;;;;6.97;5.18;;;;;;;20.73;87.01;94322.75;4995103;28;20234;-63
2022/08/18 03:19:31;;;;;;;8.05;5.18;;;;;;;20.81;86.43;94337.25;5012676;28;20677;-64
2022/08/18 03:21:58;;;;;;;8.73;5.93;;;;;;;20.78;86.71;94338.47;5012355;28;20222;-63
2022/08/18 03:24:24;;;;;;;6.05;5.45;;;;;;;20.86;86.72;94340.84;5012681;28;20218;-63
2022/08/18 03:26:51;;;;;;;5.85;5.20;;;;;;;21.05;86.31;94351.41;4995063;28;20191;-62
2022/08/18 03:29:17;;;;;;;6.57;5.15;;;;;;;21.03;86.19;94351.59;4994983;28;20214;-60
2022/08/18 03:31:44;;;;;;;6.28;5.68;;;;;;;20.88;87.26;94338.88;5012266;28;20187;-63
2022/08/18 03:34:10;;;;;;;6.30;5.70;;;;;;;20.77;88.26;94329.13;5012620;28;20198;-63
2022/08/18 03:36:36;;;;;;;8.00;5.53;;;;;;;20.59;89.66;94326.34;5012391;28;20187;-63
2022/08/18 03:39:08;;;;;;;9.43;5.55;;;;;;;20.72;89.19;94336.69;4994655;28;20215;-61
2022/08/18 03:41:36;;;;;;;8.13;6.00;;;;;;;20.78;88.56;94333.31;5012264;28;20664;-60
2022/08/18 03:44:02;;;;;;;10.35;6.45;;;;;;;20.80;88.74;94343.44;5012357;28;20211;-63
2022/08/18 03:46:28;;;;;;;13.57;6.95;;;;;;;20.91;88.34;94348.00;4994571;28;20198;-60
2022/08/18 03:48:57;;;;;;;11.38;6.50;;;;;;;20.86;87.86;94353.78;4994827;28;20692;-63
2022/08/18 03:51:26;;;;;;;7.82;5.88;;;;;;;20.77;88.49;94343.81;5012266;28;20234;-63
2022/08/18 03:54:00;;;;;;;12.45;5.82;;;;;;;20.56;90.01;94328.53;4994421;28;20219;-63
2022/08/18 03:56:32;;;;;;;9.55;6.25;;;;;;;20.56;90.12;94331.88;5011891;28;20664;-62
2022/08/18 03:59:01;;;;;;;7.70;5.13;;;;;;;20.66;89.64;94341.84;5011989;28;20214;-64
2022/08/18 04:01:31;;;;;;;10.70;6.38;;;;;;;20.64;89.97;94342.06;5011907;28;20190;-65
2022/08/18 04:03:59;;;;;;;7.45;6.30;;;;;;;20.74;89.13;94351.97;5011951;28;20207;-64
2022/08/18 04:06:38;;;;;;;8.40;6.25;;;;;;;20.64;89.04;94354.16;5011830;28;20550;-64
2022/08/18 04:09:07;;;;;;;12.27;6.82;;;;;;;20.58;88.16;94373.03;5011851;28;20210;-64
2022/08/18 04:11:34;;;;;;;6.95;6.20;;;;;;;20.40;88.55;94365.84;5011938;28;20186;-65
2022/08/18 04:14:00;;;;;;;9.85;6.05;;;;;;;20.28;88.21;94371.81;5011847;28;20293;-63
2022/08/18 04:16:28;;;;;;;7.22;6.05;;;;;;;20.10;89.80;94349.88;4994199;28;20279;-65
2022/08/18 04:18:56;;;;;;;7.85;5.97;;;;;;;20.05;90.11;94346.28;4994212;28;20298;-64
2022/08/18 04:21:23;;;;;;;9.93;6.15;;;;;;;19.92;91.24;94335.94;4994188;28;20549;-63
2022/08/18 04:23:48;;;;;;;7.15;5.78;;;;;;;19.80;92.90;94329.75;5005828;23;20226;-64
2022/08/18 04:26:14;;;;;;;9.05;6.25;;;;;;;19.62;94.30;94342.38;5031598;28;20663;-64
2022/08/18 04:28:41;;;;;;;6.95;5.40;;;;;;;19.65;94.50;94358.28;5031469;28;20643;-63
2022/08/18 04:31:12;;;;;;;6.72;5.72;;;;;;;19.43;95.44;94333.59;5013578;28;20178;-61
2022/08/18 04:33:38;;;;;;;6.45;5.45;;;;;;;19.73;94.89;94355.53;5012642;28;20214;-63
2022/08/18 04:36:13;;;;;;;5.95;5.20;;;;;;;20.02;100.00;94360.38;5031183;28;20190;-61
2022/08/18 04:38:42;;;;;;;13.02;6.30;;;;;;;20.22;92.94;94390.66;5031426;28;20693;-61
2022/08/18 04:41:13;;;;;;;7.30;6.40;;;;;;;20.27;91.09;94407.16;5031309;28;20185;-62
2022/08/18 04:43:40;;;;;;;9.00;6.45;;;;;;;20.23;92.97;94379.31;5031422;28;20218;-63
2022/08/18 04:46:05;;;;;;;7.38;5.95;;;;;;;20.34;92.29;94397.63;5031018;28;20667;-61
2022/08/18 04:48:37;;;;;;;11.82;6.22;;;;;;;20.41;92.83;94389.91;5031246;28;20206;-61
2022/08/18 04:51:11;;;;;;;7.55;5.53;;;;;;;20.54;93.23;94384.75;5031014;28;20190;-63
2022/08/18 04:53:46;;;;;;;8.75;6.95;;;;;;;20.80;92.88;94389.94;5031094;28;20704;-64
2022/08/18 04:56:35;;;;;;;9.90;7.13;;;;;;;21.05;89.54;94429.72;5031234;28;20190;-59
2022/08/18 04:59:00;;;;;;;10.27;6.78;;;;;;;21.30;88.88;94446.25;5031376;28;20293;-60
2022/08/18 05:01:33;;;;;;;12.45;6.43;;;;;;;21.51;87.95;94458.16;5031028;28;20315;-62
2022/08/18 05:03:59;;;;;;;8.43;6.63;;;;;;;21.64;86.66;94468.47;5030766;28;20217;-63
2022/08/18 05:06:27;;;;;;;7.32;6.50;;;;;;;21.63;85.59;94480.63;5030818;28;20198;-63
2022/08/18 05:08:55;;;;;;;12.43;7.28;;;;;;;21.82;84.46;94498.94;5031054;28;20744;-64
2022/08/18 05:11:27;;;;;;;9.25;7.18;;;;;;;21.95;83.95;94501.50;5031243;28;20185;-63
2022/08/18 05:13:56;;;;;;;11.63;8.32;;;;;;;22.01;83.89;94500.69;5030915;28;20218;-62
2022/08/18 05:16:23;;;;;;;14.23;8.93;;;;;;;21.98;84.72;94488.94;5030632;28;20208;-61
2022/08/18 05:18:50;;;;;;;13.43;9.07;;;;;;;22.09;84.76;94497.91;5013121;28;20360;-63
2022/08/18 05:21:16;;;;;;;16.95;10.45;;;;;;;22.08;85.32;94478.19;5030674;28;20190;-63
2022/08/18 05:23:44;;;;;;;29.77;14.27;;;;;;;22.40;87.18;94464.31;5030749;28;20226;-59
2022/08/18 05:26:13;;;;;;;19.15;12.90;;;;;;;22.56;89.32;94436.09;5030700;28;20182;-63
2022/08/18 05:28:39;;;;;;;17.15;10.10;;;;;;;22.68;87.83;94469.19;5013226;28;20222;-63
2022/08/18 05:31:07;;;;;;;14.68;9.40;;;;;;;22.76;83.31;94528.56;5030640;28;20185;-62
2022/08/18 05:33:34;;;;;;;14.75;9.00;;;;;;;22.82;84.48;94507.78;5030764;28;20264;-62
2022/08/18 05:36:03;;;;;;;17.00;8.27;;;;;;;22.75;82.24;94543.31;5012525;28;20277;-59
2022/08/18 05:38:38;;;;;;;15.85;9.43;;;;;;;22.67;82.28;94535.78;5030387;28;20220;-60
2022/08/18 05:41:18;;;;;;;15.23;8.05;;;;;;;22.90;82.72;94517.91;5030234;28;20193;-59
2022/08/18 05:43:46;;;;;;;10.65;7.25;;;;;;;22.95;80.51;94561.34;5030556;28;20229;-62
2022/08/18 05:46:11;;;;;;;9.27;6.55;;;;;;;23.03;78.72;94571.47;5032755;28;20190;-60
2022/08/18 05:48:37;;;;;;;7.20;5.95;;;;;;;23.16;80.54;94543.69;5033670;28;20244;-64
2022/08/18 05:51:15;;;;;;;10.07;7.22;;;;;;;23.20;80.04;94546.66;5033923;28;20175;-63
2022/08/18 05:56:45;;;;;;;12.13;7.30;;;;;;;23.69;79.19;94562.31;5034051;28;20193;-61
2022/08/18 05:59:16;;;;;;;10.48;7.00;;;;;;;23.91;79.14;94560.13;5018309;28;20303;-64
2022/08/18 06:01:45;;;;;;;14.00;6.63;;;;;;;24.06;76.83;94596.97;5033488;28;20675;-64
2022/08/18 06:04:18;;;;;;;10.35;7.57;;;;;;;24.14;74.57;94627.88;5033377;28;20210;-60
2022/08/18 06:06:46;;;;;;;8.77;7.05;;;;;;;24.15;75.43;94608.69;5015712;28;20667;-62
2022/08/18 06:09:45;;;;;;;9.43;6.78;;;;;;;24.06;75.56;94599.56;5033249;28;20241;-63
2022/08/18 06:12:22;;;;;;;11.15;8.20;;;;;;;23.89;72.48;94640.84;5033784;28;20198;-59
2022/08/18 06:14:49;;;;;;;14.27;8.35;;;;;;;23.77;73.51;94631.34;5033731;28;20209;-60
2022/08/18 06:17:59;;;;;;;11.25;7.55;;;;;;;23.60;74.64;94589.53;5033493;28;20194;-65
2022/08/18 06:20:40;;;;;;;9.75;8.43;;;;;;;23.43;75.48;94569.50;5008422;28;20257;-63
2022/08/18 06:23:14;;;;;;;14.77;8.10;;;;;;;23.53;74.74;94590.59;5033278;28;20296;-61
2022/08/18 06:26:19;;;;;;;12.82;7.80;;;;;;;23.42;75.50;94568.69;5015626;28;20718;-61
2022/08/18 06:28:56;;;;;;;12.10;8.07;;;;;;;23.31;79.96;94489.72;4995784;28;20308;-60
2022/08/18 06:31:52;;;;;;;11.75;8.25;;;;;;;23.33;79.16;94513.66;5033201;28;20682;-65
2022/08/18 06:34:41;;;;;;;13.48;8.35;;;;;;;23.43;75.81;94567.69;5033585;28;20209;-60
2022/08/18 06:37:30;;;;;;;8.57;7.55;;;;;;;23.43;74.98;94590.25;5015598;28;20396;-60
2022/08/18 06:39:56;;;;;;;11.63;8.13;;;;;;;23.26;77.19;94545.81;4985202;28;20313;-61
2022/08/18 06:42:29;;;;;;;17.67;8.07;;;;;;;23.50;77.49;94552.84;5032874;28;20726;-63
2022/08/18 06:45:00;;;;;;;10.98;8.40;;;;;;;23.82;74.98;94588.16;5033031;28;20328;-62
2022/08/18 06:47:48;;;;;;;9.00;7.78;;;;;;;23.95;76.40;94566.47;5032833;28;20205;-64
2022/08/18 06:50:29;;;;;;;12.38;7.35;;;;;;;24.09;75.59;94573.97;5033144;28;20606;-62
2022/08/18 06:52:59;;;;;;;14.52;7.70;;;;;;;24.25;73.26;94613.38;5015293;28;20198;-60
2022/08/18 06:55:34;;;;;;;13.07;7.50;;;;;;;24.28;73.40;94600.75;5032670;28;20302;-60
2022/08/18 06:58:29;;;;;;;11.50;7.07;;;;;;;24.49;73.79;94592.56;5032128;28;20562;-61
2022/08/18 07:00:59;;;;;;;10.15;7.55;;;;;;;24.71;72.77;94604.09;5029612;28;20281;-61
2022/08/18 07:03:34;;;;;;;11.18;7.10;;;;;;;24.85;72.69;94605.56;5032458;28;20226;-61
2022/08/18 07:06:01;;;;;;;10.20;7.97;;;;;;;24.75;71.08;94626.09;5032537;28;20182;-60
2022/08/18 07:08:31;;;;;;;9.25;7.20;;;;;;;24.84;71.79;94608.41;5032662;28;20271;-59
2022/08/18 07:11:23;;;;;;;14.13;6.93;;;;;;;25.07;71.68;94605.13;5032442;28;20193;-60
2022/08/18 07:13:53;;;;;;;12.52;7.70;;;;;;;25.19;71.41;94616.38;5032337;28;20596;-61
2022/08/18 07:16:27;;;;;;;12.88;7.70;;;;;;;25.35;70.58;94620.97;5032376;28;20178;-61
2022/08/18 07:18:53;;;;;;;10.27;7.35;;;;;;;25.47;69.05;94653.06;5032575;28;20216;-59
2022/08/18 07:21:31;;;;;;;8.43;6.63;;;;;;;25.52;69.95;94627.16;5032315;28;20182;-61
2022/08/18 07:24:24;;;;;;;12.48;7.05;;;;;;;25.65;68.40;94650.41;5032498;28;20605;-64
2022/08/18 07:27:01;;;;;;;9.95;5.78;;;;;;;25.83;66.34;94679.00;5019947;28;20237;-61
2022/08/18 07:29:34;;;;;;;12.75;7.00;;;;;;;25.95;66.45;94674.63;5032227;28;20235;-61
2022/08/18 07:32:08;;;;;;;11.55;6.57;;;;;;;26.19;67.79;94642.38;5014275;28;20672;-61
2022/08/18 07:34:42;;;;;;;10.55;6.45;;;;;;;26.23;64.38;94718.31;5032151;28;20218;-62
2022/08/18 07:37:18;;;;;;;7.00;5.35;;;;;;;26.34;63.76;94702.69;5014459;28;20194;-61
2022/08/18 07:39:52;;;;;;;11.88;6.22;;;;;;;26.52;62.51;94723.44;5032552;28;20228;-62
2022/08/18 07:42:41;;;;;;;8.10;5.40;;;;;;;26.60;61.47;94751.03;5031938;28;20195;-64
2022/08/18 07:45:23;;;;;;;5.88;5.30;;;;;;;26.66;61.48;94725.84;5031881;28;20223;-60
2022/08/18 07:47:52;;;;;;;10.50;6.28;;;;;;;26.74;61.70;94721.13;5014090;28;20190;-60
2022/08/18 07:50:18;;;;;;;10.45;6.35;;;;;;;26.81;61.38;94715.78;5031685;28;20217;-61
2022/08/18 07:52:55;;;;;;;9.80;5.95;;;;;;;27.01;60.69;94737.09;5031731;28;20743;-64
2022/08/18 07:55:29;;;;;;;7.35;5.80;;;;;;;27.16;61.03;94713.94;5031642;28;20201;-60
2022/08/18 07:57:59;;;;;;;7.82;5.95;;;;;;;27.29;59.73;94745.03;5031674;28;20208;-62
2022/08/18 08:00:27;;;;;;;5.97;4.95;;;;;;;27.27;58.63;94760.13;5031480;28;20206;-62
2022/08/18 08:03:27;;;;;;;10.77;5.43;;;;;;;27.34;57.24;94790.34;5031652;28;20573;-64
2022/08/18 08:06:06;;;;;;;11.35;5.40;;;;;;;27.16;57.46;94766.16;5013654;28;20190;-63
2022/08/18 08:09:18;;;;;;;7.60;6.07;;;;;;;27.33;58.56;94746.16;5030484;28;20210;-61
2022/08/18 08:11:50;;;;;;;6.28;5.68;;;;;;;27.65;58.89;94744.72;4951292;29;20686;-62
2022/08/18 08:14:40;;;;;;;8.15;5.57;;;;;;;27.96;57.71;94754.72;5017599;28;20237;-63
2022/08/18 08:17:53;;;;;;;5.85;4.90;;;;;;;27.92;56.22;94792.78;5031474;28;20197;-63
2022/08/18 08:20:43;;;;;;;8.15;5.28;;;;;;;27.91;54.42;94833.03;5031389;28;20252;-63
2022/08/18 08:23:32;;;;;;;6.18;5.57;;;;;;;28.01;54.28;94811.56;5031554;28;20225;-63
2022/08/18 08:26:03;;;;;;;8.55;4.82;;;;;;;28.12;54.68;94790.56;5031246;28;20565;-61
2022/08/18 08:28:53;;;;;;;6.38;5.03;;;;;;;28.20;52.75;94836.47;5031427;28;20688;-65
2022/08/18 08:31:38;;;;;;;9.10;5.13;;;;;;;28.19;52.49;94832.28;5030359;28;20178;-63
2022/08/18 08:34:25;;;;;;;7.53;4.50;;;;;;;28.44;51.68;94850.25;5031494;28;20245;-61
2022/08/18 08:37:03;;;;;;;6.35;5.00;;;;;;;28.48;50.92;94882.78;5030881;28;20198;-61
2022/08/18 08:39:38;;;;;;;5.57;5.03;;;;;;;28.45;50.53;94792.47;5030755;28;20319;-61
2022/08/18 08:42:13;;;;;;;4.68;4.00;;;;;;;28.34;48.67;94767.19;5013290;28;20190;-61
2022/08/18 08:44:47;;;;;;;6.25;4.65;;;;;;;28.57;48.60;94745.31;5030793;28;20217;-64
2022/08/18 08:47:33;;;;;;;5.30;4.50;;;;;;;28.78;48.45;94740.16;5031098;28;20224;-61
2022/08/18 08:50:07;;;;;;;7.38;4.65;;;;;;;28.71;49.50;94699.47;5031021;28;20678;-62
2022/08/18 08:52:38;;;;;;;7.50;4.50;;;;;;;28.78;48.40;94724.47;5030872;28;20182;-62
2022/08/18 08:55:10;;;;;;;8.35;4.00;;;;;;;28.87;47.54;94741.31;5030741;28;20263;-60
2022/08/18 08:57:54;;;;;;;5.97;4.10;;;;;;;28.79;47.80;94720.00;5030789;28;20694;-61
2022/08/18 09:00:20;;;;;;;6.47;4.10;;;;;;;28.77;47.52;94727.28;5030806;28;20597;-63
2022/08/18 09:02:49;;;;;;;7.32;4.63;;;;;;;28.91;48.87;94699.75;5030509;28;20214;-62
2022/08/18 09:05:22;;;;;;;6.60;5.03;;;;;;;29.06;50.34;94663.28;5030770;28;20770;-63
2022/08/18 09:08:09;;;;;;;5.35;4.82;;;;;;;28.99;49.35;94678.38;5030892;28;20279;-66
2022/08/18 09:10:54;;;;;;;8.13;4.03;;;;;;;28.67;48.20;94693.13;5012842;28;20186;-62
2022/08/18 09:13:31;;;;;;;5.82;4.65;;;;;;;28.93;49.41;94668.88;5030526;28;20205;-61
2022/08/18 09:16:02;;;;;;;7.47;4.60;;;;;;;29.12;48.37;94678.03;5030479;28;20209;-62
2022/08/18 09:18:58;;;;;;;8.13;4.80;;;;;;;29.06;46.99;94707.81;5012762;28;20602;-62
2022/08/18 09:21:35;;;;;;;4.80;4.22;;;;;;;29.18;47.00;94702.47;5033540;28;20186;-60
2022/08/18 09:24:23;;;;;;;6.00;4.63;;;;;;;29.40;48.18;94671.84;5034327;28;20601;-61
2022/08/18 09:27:23;;;;;;;6.32;4.55;;;;;;;29.70;46.71;94696.53;5034019;28;20186;-62
2022/08/18 09:29:59;;;;;;;8.23;4.90;;;;;;;29.66;45.71;94719.03;5034184;28;20735;-60
2022/08/18 09:32:27;;;;;;;6.82;4.72;;;;;;;29.50;47.03;94680.59;5033825;28;20672;-60
2022/08/18 09:35:10;;;;;;;4.97;4.45;;;;;;;29.59;45.24;94709.78;5033652;28;20305;-60
2022/08/18 09:41:30;;;;;;;4.60;4.18;;;;;;;29.63;44.85;94706.44;5033768;28;20188;-60
2022/08/18 09:43:38;;;;;;;6.85;4.43;;;;;;;30.17;44.55;94698.59;5039783;28;21226;-61
2022/08/18 09:46:05;;;;;;;5.93;3.72;;;;;;;30.30;43.32;94727.09;5053491;28;20317;-63
2022/08/18 09:48:37;;;;;;;6.28;3.78;;;;;;;30.51;42.24;94758.47;5053480;28;20309;-63
2022/08/18 09:51:15;;;;;;;5.47;4.40;;;;;;;30.46;42.57;94731.41;5035737;28;20193;-65
2022/08/18 09:53:46;;;;;;;5.10;4.35;;;;;;;30.70;43.05;94719.50;5036216;28;20235;-61
2022/08/18 09:56:14;;;;;;;4.88;4.03;;;;;;;31.10;41.46;94743.44;5053370;28;20212;-67
2022/08/18 09:58:48;;;;;;;8.55;4.35;;;;;;;30.86;41.75;94717.78;5053827;28;20217;-61
2022/08/18 10:01:19;;;;;;;4.13;3.70;;;;;;;30.81;41.12;94733.47;5053287;28;20674;-66
2022/08/18 10:04:14;;;;;;;5.38;4.30;;;;;;;30.87;41.13;94720.16;5053539;28;20233;-65
2022/08/18 10:06:45;;;;;;;4.90;4.25;;;;;;;31.04;41.26;94699.00;5053340;28;20379;-63
2022/08/18 10:09:26;;;;;;;6.70;3.95;;;;;;;31.34;41.77;94697.28;5053472;28;20209;-64
2022/08/18 10:12:01;;;;;;;5.82;4.10;;;;;;;31.14;40.91;94710.34;5035322;28;20697;-61
2022/08/18 10:14:52;;;;;;;4.30;3.90;;;;;;;30.62;40.33;94717.34;5053323;28;20227;-60
2022/08/18 10:17:49;;;;;;;5.65;4.70;;;;;;;30.85;40.31;94713.56;5039932;28;20194;-64
2022/08/18 10:20:41;;;;;;;5.07;4.20;;;;;;;30.89;39.94;94725.16;5035239;28;20817;-63
2022/08/18 10:23:08;;;;;;;5.63;4.25;;;;;;;30.87;39.40;94733.28;5052994;28;20252;-61
2022/08/18 10:25:45;;;;;;;6.43;3.95;;;;;;;31.31;40.92;94691.75;5035233;28;20197;-64
2022/08/18 10:28:49;;;;;;;7.05;4.18;;;;;;;31.61;38.89;94730.53;5053134;28;20193;-62
2022/08/18 10:31:14;;;;;;;10.48;4.30;;;;;;;31.90;37.93;94742.19;5052177;28;20189;-62
2022/08/18 10:34:09;;;;;;;4.50;3.58;;;;;;;31.98;37.08;94762.75;5034501;28;20745;-61
2022/08/18 10:36:48;;;;;;;4.65;4.15;;;;;;;32.20;37.97;94729.91;5052883;28;20350;-61
2022/08/18 10:39:21;;;;;;;9.05;3.97;;;;;;;32.44;40.23;94651.22;5035237;28;20243;-64
2022/08/18 10:42:03;;;;;;;8.15;4.78;;;;;;;32.14;39.11;94695.94;5034905;28;20193;-64
2022/08/18 10:44:34;;;;;;;5.68;4.00;;;;;;;31.64;38.12;94711.59;5052850;28;20213;-60
2022/08/18 10:47:01;;;;;;;7.32;4.57;;;;;;;31.82;38.28;94705.88;5052603;28;20201;-64
2022/08/18 10:49:31;;;;;;;5.35;4.28;;;;;;;31.99;37.25;94730.94;5034774;28;20209;-63
2022/08/18 10:52:12;;;;;;;3.65;3.33;;;;;;;32.35;36.84;94731.78;5034855;28;20193;-63
2022/08/18 10:54:37;;;;;;;5.30;3.70;;;;;;;32.68;36.08;94735.75;5034750;28;20575;-63
2022/08/18 10:57:35;;;;;;;5.07;3.80;;;;;;;32.11;35.77;94739.38;5052635;28;20339;-61
2022/08/18 11:00:07;;;;;;;4.50;4.10;;;;;;;32.77;35.29;94734.94;5013045;28;20240;-62
2022/08/18 11:02:33;;;;;;;4.85;4.10;;;;;;;32.61;35.39;94725.47;5052541;28;20284;-64
2022/08/18 11:05:05;;;;;;;4.70;3.83;;;;;;;32.42;34.87;94731.50;5052567;28;20293;-65
2022/08/18 11:07:31;;;;;;;6.70;3.90;;;;;;;32.95;34.67;94715.16;5052543;28;20684;-62
2022/08/18 11:09:58;;;;;;;6.00;4.03;;;;;;;33.04;34.42;94724.13;5052216;28;20655;-63
2022/08/18 11:12:58;;;;;;;7.15;3.70;;;;;;;33.23;34.36;94721.72;5034479;28;20189;-64
2022/08/18 11:15:32;;;;;;;5.00;3.80;;;;;;;33.44;34.06;94716.09;4997016;28;20225;-64
2022/08/18 11:18:35;;;;;;;5.72;3.63;;;;;;;34.17;34.76;94711.78;5052392;28;20189;-63
2022/08/18 11:21:22;;;;;;;6.13;4.28;;;;;;;34.03;33.04;94747.78;4969499;28;20205;-62
2022/08/18 11:24:10;;;;;;;8.82;4.10;;;;;;;33.73;32.00;94766.38;5034309;28;20217;-63
2022/08/18 11:26:44;;;;;;;4.90;3.50;;;;;;;33.62;32.59;94739.25;5034201;28;20220;-64
2022/08/18 11:29:30;;;;;;;3.88;3.53;;;;;;;33.66;32.27;94740.28;5052638;28;20695;-62
2022/08/18 11:31:58;;;;;;;6.40;3.95;;;;;;;34.27;31.61;94730.22;5034072;28;20194;-61
2022/08/18 11:34:36;;;;;;;4.05;3.65;;;;;;;34.59;31.41;94733.16;5052118;28;20224;-61
2022/08/18 11:37:06;;;;;;;5.68;3.38;;;;;;;34.93;31.89;94729.69;5052364;28;20185;-63
2022/08/18 11:39:32;;;;;;;4.85;3.58;;;;;;;35.30;30.87;94751.00;5051738;28;20213;-63
2022/08/18 11:41:58;;;;;;;4.03;3.35;;;;;;;34.57;31.76;94706.22;5052562;28;20192;-62
2022/08/18 11:44:30;;;;;;;7.53;3.42;;;;;;;34.64;31.52;94716.47;5051556;28;20236;-62
2022/08/18 11:47:09;;;;;;;6.07;3.63;;;;;;;34.91;30.88;94737.88;5051974;28;20194;-65
2022/08/18 11:49:36;;;;;;;5.03;3.80;;;;;;;35.07;30.42;94722.72;5034300;28;20217;-62
2022/08/18 11:52:16;;;;;;;5.95;3.60;;;;;;;34.07;32.38;94685.47;5051826;28;20185;-62
2022/08/18 11:54:48;;;;;;;4.30;4.00;;;;;;;33.35;33.98;94638.59;5051979;28;20246;-63
2022/08/18 11:57:31;;;;;;;9.10;4.18;;;;;;;32.61;34.22;94625.41;5051798;28;20189;-62
2022/08/18 11:59:57;;;;;;;5.00;3.65;;;;;;;32.71;33.74;94622.75;5051502;28;20209;-61
2022/08/18 12:02:24;;;;;;;4.05;3.75;;;;;;;33.28;32.30;94655.78;5051682;28;20259;-62
2022/08/18 12:05:05;;;;;;;6.45;3.80;;;;;;;33.73;32.79;94651.09;5051493;28;20229;-63
2022/08/18 12:07:34;;;;;;;5.32;4.18;;;;;;;33.81;33.34;94625.97;5051454;28;20185;-63
2022/08/18 12:10:18;;;;;;;4.68;4.28;;;;;;;34.21;34.19;94601.13;5033665;28;20201;-61
2022/08/18 12:12:46;;;;;;;4.00;3.65;;;;;;;34.74;32.72;94638.97;5051605;28;20189;-64
2022/08/18 12:15:12;;;;;;;4.80;3.40;;;;;;;34.25;31.40;94668.97;5051253;28;20215;-62